sensor_id;sensor_type;location;lat;lon;timestamp;pressure;altitude;pressure_sealevel;temperature;humidity
6094;BME280;19964;42.060;24.700;2024-03-23T00:53:47;97610.00;;;3.19;87.38
6094;BME280;19964;42.060;24.700;2024-03-23T00:56:14;97611.06;;;3.25;86.90
6094;BME280;19964;42.060;24.700;2024-03-23T00:58:40;97607.19;;;3.29;86.53
6094;BME280;19964;42.060;24.700;2024-03-23T01:01:07;97616.09;;;3.33;86.54
6094;BME280;19964;42.060;24.700;2024-03-23T01:03:33;97600.66;;;3.12;86.87
6094;BME280;19964;42.060;24.700;2024-03-23T01:06:00;97603.09;;;3.05;88.02
6094;BME280;19964;42.060;24.700;2024-03-23T01:08:26;97599.75;;;3.05;88.05
6094;BME280;19964;42.060;24.700;2024-03-23T01:10:58;97588.19;;;2.94;88.28
6094;BME280;19964;42.060;24.700;2024-03-23T01:13:24;97604.78;;;2.98;88.84
6094;BME280;19964;42.060;24.700;2024-03-23T01:15:51;97603.41;;;2.88;90.07
6094;BME280;19964;42.060;24.700;2024-03-23T01:18:17;97591.84;;;2.77;90.48
6094;BME280;19964;42.060;24.700;2024-03-23T01:20:45;97601.75;;;2.80;90.74
6094;BME280;19964;42.060;24.700;2024-03-23T01:23:11;97593.50;;;2.70;91.84
6094;BME280;19964;42.060;24.700;2024-03-23T01:25:38;97592.09;;;2.67;91.96
6094;BME280;19964;42.060;24.700;2024-03-23T01:28:06;97599.59;;;2.69;92.97
6094;BME280;19964;42.060;24.700;2024-03-23T01:30:33;97590.16;;;2.69;92.84
6094;BME280;19964;42.060;24.700;2024-03-23T01:32:59;97588.13;;;2.65;93.06
6094;BME280;19964;42.060;24.700;2024-03-23T01:35:26;97601.19;;;2.70;93.46
6094;BME280;19964;42.060;24.700;2024-03-23T01:37:53;97580.16;;;2.60;93.66
6094;BME280;19964;42.060;24.700;2024-03-23T01:40:20;97594.81;;;2.66;93.77
6094;BME280;19964;42.060;24.700;2024-03-23T01:42:55;97597.25;;;2.59;94.28
6094;BME280;19964;42.060;24.700;2024-03-23T01:45:23;97602.22;;;2.61;94.56
6094;BME280;19964;42.060;24.700;2024-03-23T01:47:49;97602.91;;;2.55;95.20
6094;BME280;19964;42.060;24.700;2024-03-23T01:50:17;97608.34;;;2.52;95.46
6094;BME280;19964;42.060;24.700;2024-03-23T01:52:43;97597.63;;;2.56;95.31
6094;BME280;19964;42.060;24.700;2024-03-23T01:55:10;97598.88;;;2.60;95.55
6094;BME280;19964;42.060;24.700;2024-03-23T01:57:37;97603.72;;;2.55;96.05
6094;BME280;19964;42.060;24.700;2024-03-23T02:00:05;97605.84;;;2.44;96.90
6094;BME280;19964;42.060;24.700;2024-03-23T02:02:33;97610.28;;;2.50;96.62
6094;BME280;19964;42.060;24.700;2024-03-23T02:05:00;97609.81;;;2.46;96.92
6094;BME280;19964;42.060;24.700;2024-03-23T02:07:26;97603.28;;;2.44;97.80
6094;BME280;19964;42.060;24.700;2024-03-23T02:09:53;97603.47;;;2.42;97.56
6094;BME280;19964;42.060;24.700;2024-03-23T02:12:19;97595.34;;;2.39;97.78
6094;BME280;19964;42.060;24.700;2024-03-23T02:14:46;97605.22;;;2.42;97.29
6094;BME280;19964;42.060;24.700;2024-03-23T02:17:13;97601.97;;;2.48;97.53
6094;BME280;19964;42.060;24.700;2024-03-23T02:19:41;97601.47;;;2.52;97.05
6094;BME280;19964;42.060;24.700;2024-03-23T02:22:07;97516.13;;;1.94;97.80
6094;BME280;19964;42.060;24.700;2024-03-23T02:24:37;97596.41;;;2.44;98.26
6094;BME280;19964;42.060;24.700;2024-03-23T02:27:03;97595.47;;;2.45;98.10
6094;BME280;19964;42.060;24.700;2024-03-23T02:29:30;97588.47;;;2.39;97.77
6094;BME280;19964;42.060;24.700;2024-03-23T02:31:56;97595.97;;;2.41;98.40
6094;BME280;19964;42.060;24.700;2024-03-23T02:34:24;97585.53;;;2.28;99.02
6094;BME280;19964;42.060;24.700;2024-03-23T02:36:50;97591.28;;;2.30;99.18
6094;BME280;19964;42.060;24.700;2024-03-23T02:39:17;97589.72;;;2.21;99.82
6094;BME280;19964;42.060;24.700;2024-03-23T02:41:44;97578.78;;;2.12;100.00
6094;BME280;19964;42.060;24.700;2024-03-23T02:44:11;97591.31;;;2.22;99.76
6094;BME280;19964;42.060;24.700;2024-03-23T02:46:37;97589.25;;;2.17;100.00
6094;BME280;19964;42.060;24.700;2024-03-23T02:49:04;97594.41;;;2.09;100.00
6094;BME280;19964;42.060;24.700;2024-03-23T02:51:30;97584.59;;;1.98;100.00
6094;BME280;19964;42.060;24.700;2024-03-23T02:53:57;97584.31;;;1.93;100.00
6094;BME280;19964;42.060;24.700;2024-03-23T02:56:23;97595.28;;;2.02;100.00
6094;BME280;19964;42.060;24.700;2024-03-23T02:58:51;97593.69;;;2.01;100.00
6094;BME280;19964;42.060;24.700;2024-03-23T03:01:17;97589.72;;;1.98;100.00
6094;BME280;19964;42.060;24.700;2024-03-23T03:03:44;97590.78;;;2.04;100.00
6094;BME280;19964;42.060;24.700;2024-03-23T03:06:10;97589.31;;;2.09;100.00
6094;BME280;19964;42.060;24.700;2024-03-23T03:08:37;97588.53;;;2.09;100.00
6094;BME280;19964;42.060;24.700;2024-03-23T03:11:03;97590.47;;;2.07;100.00
6094;BME280;19964;42.060;24.700;2024-03-23T03:13:30;97586.59;;;2.11;100.00
6094;BME280;19964;42.060;24.700;2024-03-23T03:15:57;97586.81;;;2.01;100.00
6094;BME280;19964;42.060;24.700;2024-03-23T03:18:24;97554.34;;;1.87;100.00
6094;BME280;19964;42.060;24.700;2024-03-23T03:20:54;97579.00;;;2.03;100.00
6094;BME280;19964;42.060;24.700;2024-03-23T03:23:21;97576.09;;;2.06;100.00
6094;BME280;19964;42.060;24.700;2024-03-23T03:25:47;97576.59;;;2.01;100.00
6094;BME280;19964;42.060;24.700;2024-03-23T03:28:14;97581.19;;;2.06;100.00
6094;BME280;19964;42.060;24.700;2024-03-23T03:30:40;97577.84;;;2.05;100.00
6094;BME280;19964;42.060;24.700;2024-03-23T03:33:08;97574.78;;;2.10;100.00
6094;BME280;19964;42.060;24.700;2024-03-23T03:35:34;97581.94;;;2.14;100.00
6094;BME280;19964;42.060;24.700;2024-03-23T03:38:01;97575.63;;;2.02;100.00
6094;BME280;19964;42.060;24.700;2024-03-23T03:40:27;97562.41;;;1.99;100.00
6094;BME280;19964;42.060;24.700;2024-03-23T03:42:53;97581.31;;;2.12;100.00
6094;BME280;19964;42.060;24.700;2024-03-23T03:45:19;97575.88;;;2.15;100.00
6094;BME280;19964;42.060;24.700;2024-03-23T03:47:46;97590.06;;;2.18;100.00
6094;BME280;19964;42.060;24.700;2024-03-23T03:50:14;97592.94;;;2.15;100.00
6094;BME280;19964;42.060;24.700;2024-03-23T03:52:41;97590.66;;;1.97;100.00
6094;BME280;19964;42.060;24.700;2024-03-23T03:55:13;97596.69;;;2.04;100.00
6094;BME280;19964;42.060;24.700;2024-03-23T03:57:40;97595.31;;;1.94;100.00
6094;BME280;19964;42.060;24.700;2024-03-23T04:00:07;97601.47;;;2.07;100.00
6094;BME280;19964;42.060;24.700;2024-03-23T04:02:36;97590.56;;;2.13;100.00
6094;BME280;19964;42.060;24.700;2024-03-23T04:05:02;97596.38;;;1.99;100.00
6094;BME280;19964;42.060;24.700;2024-03-23T04:07:31;97596.75;;;1.96;100.00
6094;BME280;19964;42.060;24.700;2024-03-23T04:09:57;97599.28;;;1.96;100.00
6094;BME280;19964;42.060;24.700;2024-03-23T04:12:24;97611.16;;;1.89;100.00
6094;BME280;19964;42.060;24.700;2024-03-23T04:14:51;97604.75;;;1.93;100.00
6094;BME280;19964;42.060;24.700;2024-03-23T04:17:18;97607.97;;;1.87;100.00
6094;BME280;19964;42.060;24.700;2024-03-23T04:19:44;97604.22;;;1.98;100.00
6094;BME280;19964;42.060;24.700;2024-03-23T04:22:11;97612.84;;;2.05;100.00
6094;BME280;19964;42.060;24.700;2024-03-23T04:24:38;97609.56;;;1.88;100.00
6094;BME280;19964;42.060;24.700;2024-03-23T04:27:05;97613.81;;;1.96;100.00
6094;BME280;19964;42.060;24.700;2024-03-23T04:29:31;97611.69;;;2.07;100.00
6094;BME280;19964;42.060;24.700;2024-03-23T04:31:58;97606.91;;;2.04;100.00
6094;BME280;19964;42.060;24.700;2024-03-23T04:34:24;97607.50;;;2.14;100.00
6094;BME280;19964;42.060;24.700;2024-03-23T04:36:51;97613.28;;;2.31;100.00
6094;BME280;19964;42.060;24.700;2024-03-23T04:39:17;97613.22;;;2.61;99.39
6094;BME280;19964;42.060;24.700;2024-03-23T04:41:46;97606.59;;;2.90;97.34
6094;BME280;19964;42.060;24.700;2024-03-23T04:44:13;97608.47;;;3.10;95.07
6094;BME280;19964;42.060;24.700;2024-03-23T04:46:40;97619.34;;;3.41;93.05
6094;BME280;19964;42.060;24.700;2024-03-23T04:49:07;97614.84;;;3.73;91.44
6094;BME280;19964;42.060;24.700;2024-03-23T04:51:35;97623.59;;;4.14;88.88
6094;BME280;19964;42.060;24.700;2024-03-23T04:54:02;97616.72;;;4.57;86.26
6094;BME280;19964;42.060;24.700;2024-03-23T04:56:29;97623.59;;;4.98;84.36
6094;BME280;19964;42.060;24.700;2024-03-23T04:58:58;97622.31;;;5.15;82.99
6094;BME280;19964;42.060;24.700;2024-03-23T05:01:27;97615.09;;;5.25;82.16
6094;BME280;19964;42.060;24.700;2024-03-23T05:03:54;97613.66;;;5.51;81.31
6094;BME280;19964;42.060;24.700;2024-03-23T05:06:19;97620.00;;;5.89;78.64
6094;BME280;19964;42.060;24.700;2024-03-23T05:08:46;97619.28;;;6.08;78.26
6094;BME280;19964;42.060;24.700;2024-03-23T05:11:12;97622.16;;;6.65;76.20
6094;BME280;19964;42.060;24.700;2024-03-23T05:13:40;97621.00;;;7.07;73.95
6094;BME280;19964;42.060;24.700;2024-03-23T05:16:07;97619.59;;;7.11;73.15
6094;BME280;19964;42.060;24.700;2024-03-23T05:18:34;97620.53;;;7.56;71.75
6094;BME280;19964;42.060;24.700;2024-03-23T05:21:01;97613.25;;;7.97;69.12
6094;BME280;19964;42.060;24.700;2024-03-23T05:23:28;97618.31;;;8.54;67.28
6094;BME280;19964;42.060;24.700;2024-03-23T05:25:54;97617.41;;;8.98;65.79
6094;BME280;19964;42.060;24.700;2024-03-23T05:28:22;97595.63;;;9.12;63.62
6094;BME280;19964;42.060;24.700;2024-03-23T05:30:50;97609.97;;;9.51;63.16
6094;BME280;19964;42.060;24.700;2024-03-23T05:33:20;97612.88;;;10.09;61.20
6094;BME280;19964;42.060;24.700;2024-03-23T05:35:46;97614.81;;;10.31;61.02
6094;BME280;19964;42.060;24.700;2024-03-23T05:38:13;97615.97;;;10.77;60.31
6094;BME280;19964;42.060;24.700;2024-03-23T05:40:39;97616.31;;;11.15;59.06
6094;BME280;19964;42.060;24.700;2024-03-23T05:43:06;97618.88;;;11.61;56.41
6094;BME280;19964;42.060;24.700;2024-03-23T05:45:32;97612.81;;;11.55;55.97
6094;BME280;19964;42.060;24.700;2024-03-23T05:47:59;97611.22;;;11.89;56.12
6094;BME280;19964;42.060;24.700;2024-03-23T05:50:27;97616.47;;;12.34;55.07
6094;BME280;19964;42.060;24.700;2024-03-23T05:52:54;97622.25;;;12.52;51.76
6094;BME280;19964;42.060;24.700;2024-03-23T05:55:20;97618.03;;;12.63;53.36
6094;BME280;19964;42.060;24.700;2024-03-23T05:57:47;97612.63;;;12.81;53.52
6094;BME280;19964;42.060;24.700;2024-03-23T06:00:13;97626.41;;;13.15;51.35
6094;BME280;19964;42.060;24.700;2024-03-23T06:02:42;97621.38;;;13.25;50.79
6094;BME280;19964;42.060;24.700;2024-03-23T06:05:10;97623.09;;;11.74;52.26
6094;BME280;19964;42.060;24.700;2024-03-23T06:07:39;97626.63;;;10.68;54.88
6094;BME280;19964;42.060;24.700;2024-03-23T06:10:05;97616.13;;;10.04;57.60
6094;BME280;19964;42.060;24.700;2024-03-23T06:12:32;97622.06;;;10.05;60.10
6094;BME280;19964;42.060;24.700;2024-03-23T06:14:58;97614.88;;;11.19;59.00
6094;BME280;19964;42.060;24.700;2024-03-23T06:17:25;97610.75;;;11.81;55.48
6094;BME280;19964;42.060;24.700;2024-03-23T06:19:51;97625.47;;;11.17;56.17
6094;BME280;19964;42.060;24.700;2024-03-23T06:22:18;97620.47;;;11.27;55.83
6094;BME280;19964;42.060;24.700;2024-03-23T06:24:45;97620.22;;;12.26;54.09
6094;BME280;19964;42.060;24.700;2024-03-23T06:27:12;97612.94;;;12.85;51.83
6094;BME280;19964;42.060;24.700;2024-03-23T06:29:38;97626.81;;;13.07;52.91
6094;BME280;19964;42.060;24.700;2024-03-23T06:32:05;97617.66;;;13.21;50.45
6094;BME280;19964;42.060;24.700;2024-03-23T06:34:31;97626.28;;;13.60;50.27
6094;BME280;19964;42.060;24.700;2024-03-23T06:36:58;97626.97;;;13.17;51.14
6094;BME280;19964;42.060;24.700;2024-03-23T06:39:24;97620.31;;;12.60;51.17
6094;BME280;19964;42.060;24.700;2024-03-23T06:41:53;97624.84;;;13.14;51.14
6094;BME280;19964;42.060;24.700;2024-03-23T06:44:19;97623.66;;;13.60;49.80
6094;BME280;19964;42.060;24.700;2024-03-23T06:46:46;97624.31;;;13.88;48.82
6094;BME280;19964;42.060;24.700;2024-03-23T06:49:14;97625.13;;;12.68;49.97
6094;BME280;19964;42.060;24.700;2024-03-23T06:51:41;97618.63;;;12.53;50.92
6094;BME280;19964;42.060;24.700;2024-03-23T06:54:08;97610.66;;;13.21;48.97
6094;BME280;19964;42.060;24.700;2024-03-23T06:56:34;97624.06;;;12.52;49.83
6094;BME280;19964;42.060;24.700;2024-03-23T06:59:02;97622.75;;;12.66;50.38
6094;BME280;19964;42.060;24.700;2024-03-23T07:01:29;97621.25;;;12.70;50.75
6094;BME280;19964;42.060;24.700;2024-03-23T07:03:55;97607.75;;;11.72;51.26
6094;BME280;19964;42.060;24.700;2024-03-23T07:06:22;97607.94;;;11.59;52.23
6094;BME280;19964;42.060;24.700;2024-03-23T07:08:48;97611.75;;;11.91;52.53
6094;BME280;19964;42.060;24.700;2024-03-23T07:11:18;97614.63;;;12.46;54.24
6094;BME280;19964;42.060;24.700;2024-03-23T07:13:45;97610.47;;;12.78;52.05
6094;BME280;19964;42.060;24.700;2024-03-23T07:16:14;97612.44;;;11.87;53.19
6094;BME280;19964;42.060;24.700;2024-03-23T07:18:40;97617.88;;;12.70;51.82
6094;BME280;19964;42.060;24.700;2024-03-23T07:21:07;97611.34;;;12.67;51.85
6094;BME280;19964;42.060;24.700;2024-03-23T07:23:33;97608.06;;;13.05;50.12
6094;BME280;19964;42.060;24.700;2024-03-23T07:26:00;97614.16;;;13.10;51.41
6094;BME280;19964;42.060;24.700;2024-03-23T07:28:26;97615.53;;;13.94;48.55
6094;BME280;19964;42.060;24.700;2024-03-23T07:31:02;97613.88;;;13.28;48.52
6094;BME280;19964;42.060;24.700;2024-03-23T07:33:29;97614.25;;;12.71;49.40
6094;BME280;19964;42.060;24.700;2024-03-23T07:35:56;97605.56;;;11.81;52.05
6094;BME280;19964;42.060;24.700;2024-03-23T07:38:23;97595.34;;;12.92;50.67
6094;BME280;19964;42.060;24.700;2024-03-23T07:40:50;97609.59;;;13.99;48.82
6094;BME280;19964;42.060;24.700;2024-03-23T07:43:20;97603.53;;;13.93;48.43
6094;BME280;19964;42.060;24.700;2024-03-23T07:45:51;97608.19;;;13.91;48.86
6094;BME280;19964;42.060;24.700;2024-03-23T07:48:18;97604.72;;;14.56;47.19
6094;BME280;19964;42.060;24.700;2024-03-23T07:50:46;97604.38;;;15.05;46.28
6094;BME280;19964;42.060;24.700;2024-03-23T07:53:12;97602.63;;;13.61;47.29
6094;BME280;19964;42.060;24.700;2024-03-23T07:55:39;97605.97;;;14.48;47.53
6094;BME280;19964;42.060;24.700;2024-03-23T07:58:05;97605.94;;;14.43;47.61
6094;BME280;19964;42.060;24.700;2024-03-23T08:00:33;97599.88;;;14.38;47.38
6094;BME280;19964;42.060;24.700;2024-03-23T08:02:59;97591.81;;;14.71;47.94
6094;BME280;19964;42.060;24.700;2024-03-23T08:05:26;97602.09;;;14.82;46.88
6094;BME280;19964;42.060;24.700;2024-03-23T08:07:53;97588.31;;;14.55;46.00
6094;BME280;19964;42.060;24.700;2024-03-23T08:10:20;97583.81;;;14.77;46.20
6094;BME280;19964;42.060;24.700;2024-03-23T08:12:46;97590.44;;;14.58;47.65
6094;BME280;19964;42.060;24.700;2024-03-23T08:15:13;97587.88;;;14.37;46.90
6094;BME280;19964;42.060;24.700;2024-03-23T08:17:39;97586.59;;;14.39;46.84
6094;BME280;19964;42.060;24.700;2024-03-23T08:20:07;97577.91;;;13.64;48.30
6094;BME280;19964;42.060;24.700;2024-03-23T08:22:33;97575.22;;;14.23;47.17
6094;BME280;19964;42.060;24.700;2024-03-23T08:25:02;97580.38;;;14.18;47.06
6094;BME280;19964;42.060;24.700;2024-03-23T08:27:28;97575.50;;;14.27;47.39
6094;BME280;19964;42.060;24.700;2024-03-23T08:29:55;97573.28;;;14.99;46.38
6094;BME280;19964;42.060;24.700;2024-03-23T08:32:20;97560.91;;;15.21;44.92
6094;BME280;19964;42.060;24.700;2024-03-23T08:34:47;97564.59;;;15.72;45.12
6094;BME280;19964;42.060;24.700;2024-03-23T08:37:14;97562.44;;;15.17;44.99
6094;BME280;19964;42.060;24.700;2024-03-23T08:39:42;97560.28;;;15.51;45.08
6094;BME280;19964;42.060;24.700;2024-03-23T08:42:10;97557.19;;;15.12;45.86
6094;BME280;19964;42.060;24.700;2024-03-23T08:44:37;97552.47;;;15.09;44.94
6094;BME280;19964;42.060;24.700;2024-03-23T08:47:03;97552.53;;;15.66;44.90
6094;BME280;19964;42.060;24.700;2024-03-23T08:49:30;97551.25;;;15.78;43.08
6094;BME280;19964;42.060;24.700;2024-03-23T08:51:56;97540.72;;;15.06;44.59
6094;BME280;19964;42.060;24.700;2024-03-23T08:54:22;97543.50;;;15.37;46.00
6094;BME280;19964;42.060;24.700;2024-03-23T08:56:48;97546.19;;;16.44;43.97
6094;BME280;19964;42.060;24.700;2024-03-23T08:59:17;97540.47;;;16.72;42.42
6094;BME280;19964;42.060;24.700;2024-03-23T09:01:43;97539.63;;;17.17;43.30
6094;BME280;19964;42.060;24.700;2024-03-23T09:04:10;97536.84;;;15.61;43.03
6094;BME280;19964;42.060;24.700;2024-03-23T09:06:36;97535.22;;;15.50;43.19
6094;BME280;19964;42.060;24.700;2024-03-23T09:09:03;97526.31;;;16.23;42.10
6094;BME280;19964;42.060;24.700;2024-03-23T09:11:29;97534.19;;;16.83;43.07
6094;BME280;19964;42.060;24.700;2024-03-23T09:13:56;97533.16;;;16.49;41.50
6094;BME280;19964;42.060;24.700;2024-03-23T09:16:23;97527.66;;;16.55;41.75
6094;BME280;19964;42.060;24.700;2024-03-23T09:18:51;97517.41;;;17.14;42.50
6094;BME280;19964;42.060;24.700;2024-03-23T09:21:17;97519.81;;;16.80;42.76
6094;BME280;19964;42.060;24.700;2024-03-23T09:23:44;97523.44;;;16.44;41.54
6094;BME280;19964;42.060;24.700;2024-03-23T09:26:10;97518.81;;;15.64;42.74
6094;BME280;19964;42.060;24.700;2024-03-23T09:28:37;97503.06;;;16.51;42.15
6094;BME280;19964;42.060;24.700;2024-03-23T09:31:04;97510.13;;;16.66;40.97
6094;BME280;19964;42.060;24.700;2024-03-23T09:33:32;97500.09;;;15.87;43.72
6094;BME280;19964;42.060;24.700;2024-03-23T09:36:03;97508.72;;;15.26;43.53
6094;BME280;19964;42.060;24.700;2024-03-23T09:38:30;97496.66;;;15.77;43.02
6094;BME280;19964;42.060;24.700;2024-03-23T09:40:56;97493.91;;;16.69;43.64
6094;BME280;19964;42.060;24.700;2024-03-23T09:43:24;97488.94;;;16.57;41.27
6094;BME280;19964;42.060;24.700;2024-03-23T09:45:50;97497.81;;;16.41;42.38
6094;BME280;19964;42.060;24.700;2024-03-23T09:48:18;97440.56;;;16.50;43.49
6094;BME280;19964;42.060;24.700;2024-03-23T09:50:46;97488.69;;;16.69;42.78
6094;BME280;19964;42.060;24.700;2024-03-23T09:53:14;97491.34;;;17.53;40.55
6094;BME280;19964;42.060;24.700;2024-03-23T09:55:41;97486.97;;;18.26;40.04
6094;BME280;19964;42.060;24.700;2024-03-23T09:58:12;97475.94;;;17.95;39.77
6094;BME280;19964;42.060;24.700;2024-03-23T10:00:38;97452.72;;;18.17;41.04
6094;BME280;19964;42.060;24.700;2024-03-23T10:03:05;97465.59;;;18.14;39.74
6094;BME280;19964;42.060;24.700;2024-03-23T10:05:32;97457.69;;;17.16;41.85
6094;BME280;19964;42.060;24.700;2024-03-23T10:08:17;97451.31;;;17.91;43.76
6094;BME280;19964;42.060;24.700;2024-03-23T10:10:44;97440.97;;;17.66;39.82
6094;BME280;19964;42.060;24.700;2024-03-23T10:13:23;97450.69;;;16.91;40.40
6094;BME280;19964;42.060;24.700;2024-03-23T10:15:55;97451.44;;;16.97;39.94
6094;BME280;19964;42.060;24.700;2024-03-23T10:18:22;97448.41;;;17.93;36.04
6094;BME280;19964;42.060;24.700;2024-03-23T10:20:51;97441.72;;;18.49;37.46
6094;BME280;19964;42.060;24.700;2024-03-23T10:23:22;97438.81;;;19.03;36.84
6094;BME280;19964;42.060;24.700;2024-03-23T10:25:48;97435.50;;;18.92;38.12
6094;BME280;19964;42.060;24.700;2024-03-23T10:28:15;97430.44;;;18.15;36.20
6094;BME280;19964;42.060;24.700;2024-03-23T10:30:41;97423.03;;;18.79;36.15
6094;BME280;19964;42.060;24.700;2024-03-23T10:33:09;97419.28;;;18.33;36.54
6094;BME280;19964;42.060;24.700;2024-03-23T10:35:36;97385.78;;;17.91;38.42
6094;BME280;19964;42.060;24.700;2024-03-23T10:38:05;97428.44;;;18.02;37.94
6094;BME280;19964;42.060;24.700;2024-03-23T10:40:34;97411.03;;;17.23;40.07
6094;BME280;19964;42.060;24.700;2024-03-23T10:43:02;97417.50;;;17.41;38.19
6094;BME280;19964;42.060;24.700;2024-03-23T10:45:29;97410.19;;;18.20;39.89
6094;BME280;19964;42.060;24.700;2024-03-23T10:47:56;97399.41;;;18.55;37.94
6094;BME280;19964;42.060;24.700;2024-03-23T10:50:22;97399.41;;;18.55;36.51
6094;BME280;19964;42.060;24.700;2024-03-23T10:52:52;97394.66;;;18.81;36.29
6094;BME280;19964;42.060;24.700;2024-03-23T10:55:19;97394.50;;;17.33;37.78
6094;BME280;19964;42.060;24.700;2024-03-23T10:57:51;97396.13;;;17.24;38.84
6094;BME280;19964;42.060;24.700;2024-03-23T11:00:19;97378.41;;;18.27;38.28
6094;BME280;19964;42.060;24.700;2024-03-23T11:02:47;97379.59;;;18.11;38.55
6094;BME280;19964;42.060;24.700;2024-03-23T11:05:30;97375.25;;;17.96;38.46
6094;BME280;19964;42.060;24.700;2024-03-23T11:07:58;97366.19;;;17.84;40.07
6094;BME280;19964;42.060;24.700;2024-03-23T11:10:28;97364.28;;;17.89;39.42
6094;BME280;19964;42.060;24.700;2024-03-23T11:12:57;97355.47;;;18.37;38.48
6094;BME280;19964;42.060;24.700;2024-03-23T11:15:23;97350.63;;;18.78;36.80
6094;BME280;19964;42.060;24.700;2024-03-23T11:18:03;97348.72;;;18.31;36.64
6094;BME280;19964;42.060;24.700;2024-03-23T11:20:33;97349.13;;;17.47;37.93
6094;BME280;19964;42.060;24.700;2024-03-23T11:23:00;97343.66;;;17.83;38.49
6094;BME280;19964;42.060;24.700;2024-03-23T11:25:27;97323.56;;;17.29;37.41
6094;BME280;19964;42.060;24.700;2024-03-23T11:27:57;97329.91;;;17.96;38.30
6094;BME280;19964;42.060;24.700;2024-03-23T11:30:24;97330.81;;;18.38;36.89
6094;BME280;19964;42.060;24.700;2024-03-23T11:32:53;97322.16;;;18.38;37.63
6094;BME280;19964;42.060;24.700;2024-03-23T11:35:29;97322.66;;;18.45;36.97
6094;BME280;19964;42.060;24.700;2024-03-23T11:38:06;97306.00;;;18.26;36.24
6094;BME280;19964;42.060;24.700;2024-03-23T11:40:33;97306.19;;;18.34;37.89
6094;BME280;19964;42.060;24.700;2024-03-23T11:43:02;97299.94;;;18.30;36.90
6094;BME280;19964;42.060;24.700;2024-03-23T11:45:29;97289.00;;;18.71;38.20
6094;BME280;19964;42.060;24.700;2024-03-23T11:48:08;97286.63;;;17.69;37.02
6094;BME280;19964;42.060;24.700;2024-03-23T11:50:35;97291.75;;;17.51;37.09
6094;BME280;19964;42.060;24.700;2024-03-23T11:53:16;97282.81;;;17.52;36.71
6094;BME280;19964;42.060;24.700;2024-03-23T11:55:45;97278.47;;;17.37;38.89
6094;BME280;19964;42.060;24.700;2024-03-23T11:58:15;97273.41;;;17.12;38.67
6094;BME280;19964;42.060;24.700;2024-03-23T12:00:41;97272.22;;;17.33;39.37
6094;BME280;19964;42.060;24.700;2024-03-23T12:03:08;97268.78;;;17.38;38.60
6094;BME280;19964;42.060;24.700;2024-03-23T12:05:36;97258.56;;;17.70;38.41
6094;BME280;19964;42.060;24.700;2024-03-23T12:08:20;97252.84;;;17.29;38.80
6094;BME280;19964;42.060;24.700;2024-03-23T12:10:49;97253.16;;;17.23;37.43
6094;BME280;19964;42.060;24.700;2024-03-23T12:13:21;97248.25;;;17.16;39.96
6094;BME280;19964;42.060;24.700;2024-03-23T12:15:50;97254.00;;;17.57;36.22
6094;BME280;19964;42.060;24.700;2024-03-23T12:18:17;97204.31;;;17.08;36.26
6094;BME280;19964;42.060;24.700;2024-03-23T12:20:44;97251.28;;;16.89;37.96
6094;BME280;19964;42.060;24.700;2024-03-23T12:23:11;97232.44;;;16.92;37.37
6094;BME280;19964;42.060;24.700;2024-03-23T12:25:39;97226.69;;;17.24;37.80
6094;BME280;19964;42.060;24.700;2024-03-23T12:28:06;97221.34;;;17.39;37.19
6094;BME280;19964;42.060;24.700;2024-03-23T12:30:35;97232.38;;;17.36;36.38
6094;BME280;19964;42.060;24.700;2024-03-23T12:33:04;97211.25;;;17.23;35.21
6094;BME280;19964;42.060;24.700;2024-03-23T12:35:31;97226.63;;;17.34;34.68
6094;BME280;19964;42.060;24.700;2024-03-23T12:37:57;97229.50;;;16.99;36.01
6094;BME280;19964;42.060;24.700;2024-03-23T12:40:24;97219.63;;;17.25;34.83
6094;BME280;19964;42.060;24.700;2024-03-23T12:42:50;97209.44;;;17.57;38.49
6094;BME280;19964;42.060;24.700;2024-03-23T12:45:17;97212.16;;;17.99;36.25
6094;BME280;19964;42.060;24.700;2024-03-23T12:47:45;97203.50;;;18.46;36.64
6094;BME280;19964;42.060;24.700;2024-03-23T12:50:12;97187.00;;;18.45;35.76
6094;BME280;19964;42.060;24.700;2024-03-23T12:52:38;97191.66;;;17.83;35.43
6094;BME280;19964;42.060;24.700;2024-03-23T12:55:05;97197.72;;;17.78;35.96
6094;BME280;19964;42.060;24.700;2024-03-23T12:57:32;97199.75;;;17.24;34.20
6094;BME280;19964;42.060;24.700;2024-03-23T12:59:59;97190.97;;;17.38;33.27
6094;BME280;19964;42.060;24.700;2024-03-23T13:02:25;97181.97;;;17.21;34.77
6094;BME280;19964;42.060;24.700;2024-03-23T13:04:54;97163.31;;;16.93;35.31
6094;BME280;19964;42.060;24.700;2024-03-23T13:07:21;97180.44;;;16.81;35.49
6094;BME280;19964;42.060;24.700;2024-03-23T13:09:50;97177.16;;;16.99;34.91
6094;BME280;19964;42.060;24.700;2024-03-23T13:12:16;97181.06;;;17.02;34.91
6094;BME280;19964;42.060;24.700;2024-03-23T13:14:44;97158.38;;;17.21;35.24
6094;BME280;19964;42.060;24.700;2024-03-23T13:17:10;97163.19;;;17.42;36.36
6094;BME280;19964;42.060;24.700;2024-03-23T13:19:37;97154.59;;;17.37;35.63
6094;BME280;19964;42.060;24.700;2024-03-23T13:22:05;97170.09;;;17.28;35.86
6094;BME280;19964;42.060;24.700;2024-03-23T13:24:32;97151.03;;;17.23;35.48
6094;BME280;19964;42.060;24.700;2024-03-23T13:26:58;97158.28;;;17.36;35.65
6094;BME280;19964;42.060;24.700;2024-03-23T13:29:25;97163.16;;;17.14;35.29
6094;BME280;19964;42.060;24.700;2024-03-23T13:31:52;97154.06;;;16.72;34.76
6094;BME280;19964;42.060;24.700;2024-03-23T13:34:19;97142.50;;;16.78;34.13
6094;BME280;19964;42.060;24.700;2024-03-23T13:36:46;97139.25;;;16.97;35.23
6094;BME280;19964;42.060;24.700;2024-03-23T13:39:15;97140.44;;;17.09;35.05
6094;BME280;19964;42.060;24.700;2024-03-23T13:41:42;97133.22;;;16.91;36.46
6094;BME280;19964;42.060;24.700;2024-03-23T13:44:10;97141.66;;;16.88;36.35
6094;BME280;19964;42.060;24.700;2024-03-23T13:46:36;97134.47;;;17.04;35.66
6094;BME280;19964;42.060;24.700;2024-03-23T13:49:04;97137.38;;;16.97;34.28
6094;BME280;19964;42.060;24.700;2024-03-23T13:51:30;97123.91;;;16.80;34.29
6094;BME280;19964;42.060;24.700;2024-03-23T13:53:57;97122.47;;;16.98;36.19
6094;BME280;19964;42.060;24.700;2024-03-23T13:56:27;97126.88;;;16.68;33.62